createdAt,value
2022-08-17T00:01:51.896Z,9.47
2022-08-17T00:04:22.839Z,9.80
2022-08-17T00:06:53.541Z,8.90
2022-08-17T00:09:24.360Z,9.70
2022-08-17T00:12:41.140Z,10.13
2022-08-17T00:14:42.963Z,8.40
2022-08-17T00:17:12.103Z,8.03
2022-08-17T00:19:41.869Z,8.70
2022-08-17T00:22:31.864Z,9.17
2022-08-17T00:25:02.059Z,9.10
2022-08-17T00:27:32.107Z,9.13
2022-08-17T00:30:01.485Z,8.40
2022-08-17T00:33:15.124Z,8.47
2022-08-17T00:35:23.510Z,7.00
2022-08-17T00:37:52.907Z,7.67
2022-08-17T00:40:24.833Z,8.80
2022-08-17T00:42:54.253Z,7.60
2022-08-17T00:45:24.285Z,8.40
2022-08-17T00:47:53.918Z,7.40
2022-08-17T00:50:22.909Z,8.60
2022-08-17T00:52:56.916Z,7.60
2022-08-17T00:55:28.289Z,7.90
2022-08-17T00:57:59.366Z,8.57
2022-08-17T01:00:30.213Z,7.50
2022-08-17T01:03:01.235Z,8.23
2022-08-17T01:05:32.174Z,8.50
2022-08-17T01:08:02.211Z,9.47
2022-08-17T01:10:58.348Z,7.70
2022-08-17T01:13:24.694Z,8.13
2022-08-17T01:15:55.562Z,7.30
2022-08-17T01:18:24.854Z,8.07
2022-08-17T01:20:55.483Z,7.73
2022-08-17T01:23:27.651Z,7.83
2022-08-17T01:25:58.288Z,7.57
2022-08-17T01:28:33.568Z,7.50
2022-08-17T01:31:18.312Z,8.10
2022-08-17T01:33:47.812Z,8.50
2022-08-17T01:36:16.989Z,7.70
2022-08-17T01:38:47.593Z,8.33
2022-08-17T01:41:17.862Z,7.90
2022-08-17T01:43:47.889Z,8.17
2022-08-17T01:46:18.201Z,7.67
2022-08-17T01:48:48.640Z,7.30
2022-08-17T01:51:17.929Z,7.97
2022-08-17T01:53:50.451Z,7.70
2022-08-17T01:56:21.030Z,7.63
2022-08-17T01:58:50.340Z,8.20
2022-08-17T02:01:20.020Z,8.10
2022-08-17T02:03:59.446Z,8.30
2022-08-17T02:06:31.311Z,8.10
2022-08-17T02:09:03.851Z,8.37
2022-08-17T02:11:34.439Z,8.10
2022-08-17T02:14:05.338Z,8.17
2022-08-17T02:16:37.814Z,7.90
2022-08-17T02:19:08.426Z,8.20
2022-08-17T02:21:37.728Z,9.23
2022-08-17T02:24:09.136Z,8.30
2022-08-17T02:26:38.691Z,8.60
2022-08-17T02:29:07.938Z,8.27
2022-08-17T02:31:38.060Z,7.97
2022-08-17T02:34:07.505Z,8.43
2022-08-17T02:36:36.863Z,8.70
2022-08-17T02:39:07.123Z,8.63
2022-08-17T02:41:37.913Z,8.30
2022-08-17T02:44:07.660Z,8.13
2022-08-17T02:46:36.973Z,8.00
2022-08-17T02:49:06.949Z,8.63
2022-08-17T02:51:36.700Z,7.20
2022-08-17T02:54:40.538Z,9.63
2022-08-17T02:56:56.966Z,8.70
2022-08-17T02:59:26.654Z,9.17
2022-08-17T03:01:56.091Z,8.60
2022-08-17T03:04:25.630Z,8.07
2022-08-17T03:06:54.980Z,8.50
2022-08-17T03:09:24.318Z,8.57
2022-08-17T03:11:53.929Z,8.37
2022-08-17T03:14:26.623Z,8.10
2022-08-17T03:16:55.874Z,8.80
2022-08-17T03:19:25.274Z,9.20
2022-08-17T03:21:55.146Z,8.80
2022-08-17T03:24:28.803Z,9.23
2022-08-17T03:26:58.441Z,8.43
2022-08-17T03:29:29.167Z,11.00
2022-08-17T03:31:58.362Z,8.43
2022-08-17T03:34:27.455Z,8.30
2022-08-17T03:36:56.656Z,8.50
2022-08-17T03:39:26.377Z,8.03
2022-08-17T03:41:55.647Z,7.43
2022-08-17T03:44:24.715Z,8.43
2022-08-17T03:47:12.849Z,7.80
2022-08-17T03:49:59.263Z,8.57
2022-08-17T03:52:45.911Z,8.40
2022-08-17T03:55:38.829Z,8.17
2022-08-17T03:58:08.265Z,8.40
2022-08-17T04:00:39.764Z,8.20
2022-08-17T04:03:10.447Z,7.20
2022-08-17T04:05:39.776Z,8.53
2022-08-17T04:08:09.291Z,7.40
2022-08-17T04:10:41.961Z,8.00
2022-08-17T04:13:14.305Z,8.17
2022-08-17T04:15:43.663Z,8.03
2022-08-17T04:18:14.190Z,7.47
2022-08-17T04:20:43.708Z,8.10
2022-08-17T04:23:16.702Z,8.57
2022-08-17T04:25:48.342Z,7.63
2022-08-17T04:28:18.016Z,8.57
2022-08-17T04:30:48.644Z,8.43
2022-08-17T04:33:20.992Z,8.27
2022-08-17T04:35:51.751Z,7.73
2022-08-17T04:38:22.375Z,8.80
2022-08-17T04:41:09.186Z,7.30
2022-08-17T04:43:39.617Z,7.43
2022-08-17T04:46:10.351Z,7.50
2022-08-17T04:48:43.434Z,8.30
2022-08-17T04:51:14.270Z,7.57
2022-08-17T04:53:44.606Z,9.13
2022-08-17T04:56:16.915Z,8.80
2022-08-17T04:58:49.911Z,8.53
2022-08-17T05:01:23.702Z,8.57
2022-08-17T05:03:55.169Z,8.73
2022-08-17T05:06:24.624Z,8.17
2022-08-17T05:08:54.019Z,7.87
2022-08-17T05:11:23.571Z,7.37
2022-08-17T05:13:52.757Z,7.77
2022-08-17T05:16:22.828Z,8.17
2022-08-17T05:18:52.249Z,7.43
2022-08-17T05:21:24.347Z,8.03
2022-08-17T05:23:54.865Z,7.70
2022-08-17T05:26:27.329Z,8.00
2022-08-17T05:28:59.849Z,9.07
2022-08-17T05:31:30.820Z,8.13
2022-08-17T05:34:00.075Z,9.03
2022-08-17T05:36:42.737Z,8.27
2022-08-17T05:39:16.424Z,8.27
2022-08-17T05:41:48.066Z,7.50
2022-08-17T05:44:17.631Z,7.13
2022-08-17T05:46:49.486Z,7.90
2022-08-17T05:49:19.833Z,8.17
2022-08-17T05:52:00.835Z,8.17
2022-08-17T05:54:39.761Z,8.27
2022-08-17T05:57:20.939Z,8.20
2022-08-17T05:59:58.660Z,7.90
2022-08-17T06:02:35.949Z,7.20
2022-08-17T06:05:12.852Z,8.87
2022-08-17T06:07:47.726Z,7.87
2022-08-17T06:10:20.031Z,7.30
2022-08-17T06:12:57.044Z,6.73
2022-08-17T06:15:33.187Z,7.40
2022-08-17T06:18:04.629Z,7.53
2022-08-17T06:20:38.087Z,7.33
2022-08-17T06:23:12.873Z,7.97
2022-08-17T06:25:46.827Z,8.10
2022-08-17T06:28:18.001Z,7.70
2022-08-17T06:31:00.213Z,8.53
2022-08-17T06:33:34.545Z,8.60
2022-08-17T06:36:09.787Z,9.50
2022-08-17T06:38:46.255Z,7.63
2022-08-17T06:41:20.210Z,7.17
2022-08-17T06:43:52.875Z,7.43
2022-08-17T06:46:26.393Z,7.87
2022-08-17T06:49:07.580Z,8.27
2022-08-17T06:51:39.843Z,7.90
2022-08-17T06:54:13.799Z,8.23
2022-08-17T06:56:54.252Z,7.10
2022-08-17T06:59:26.376Z,8.33
2022-08-17T07:02:06.830Z,7.83
2022-08-17T07:04:37.180Z,8.30
2022-08-17T07:07:22.668Z,7.67
2022-08-17T07:09:53.763Z,8.10
2022-08-17T07:12:24.829Z,8.20
2022-08-17T07:14:55.857Z,7.60
2022-08-17T07:17:46.894Z,8.77
2022-08-17T07:20:17.835Z,7.83
2022-08-17T07:22:57.623Z,7.27
2022-08-17T07:25:30.992Z,7.97
2022-08-17T07:28:01.170Z,7.43
2022-08-17T07:30:31.054Z,7.60
2022-08-17T07:33:13.905Z,6.73
2022-08-17T07:35:44.353Z,6.80
2022-08-17T07:38:24.273Z,7.50
2022-08-17T07:41:05.445Z,7.90
2022-08-17T07:43:36.495Z,8.27
2022-08-17T07:46:32.981Z,7.20
2022-08-17T07:49:16.943Z,6.80
2022-08-17T07:51:56.614Z,6.63
2022-08-17T07:54:30.649Z,7.30
2022-08-17T07:57:02.248Z,6.80
2022-08-17T07:59:33.793Z,9.27
2022-08-17T08:02:06.372Z,7.00
2022-08-17T08:04:58.870Z,7.20
2022-08-17T08:07:29.047Z,7.30
2022-08-17T08:10:07.973Z,6.90
2022-08-17T08:12:40.313Z,7.17
2022-08-17T08:15:11.600Z,7.63
2022-08-17T08:17:47.971Z,7.20
2022-08-17T08:20:51.312Z,6.73
2022-08-17T08:23:15.730Z,6.80
2022-08-17T08:25:53.617Z,8.87
2022-08-17T08:28:28.913Z,9.47
2022-08-17T08:31:03.956Z,7.37
2022-08-17T08:33:39.102Z,7.20
2022-08-17T08:36:13.578Z,6.90
2022-08-17T08:39:06.476Z,7.10
2022-08-17T08:41:40.790Z,6.83
2022-08-17T08:44:17.964Z,6.80
2022-08-17T08:46:52.124Z,7.87
2022-08-17T08:50:02.723Z,7.93
2022-08-17T08:52:37.931Z,7.37
2022-08-17T08:55:10.594Z,8.00
2022-08-17T08:57:42.407Z,8.13
2022-08-17T09:00:34.627Z,10.10
2022-08-17T09:03:17.668Z,7.80
2022-08-17T09:05:57.299Z,8.10
2022-08-17T09:08:30.172Z,8.93
2022-08-17T09:11:02.575Z,8.20
2022-08-17T09:13:38.473Z,8.87
2022-08-17T09:16:11.672Z,7.47
2022-08-17T09:18:59.843Z,8.37
2022-08-17T09:21:34.432Z,9.50
2022-08-17T09:24:06.984Z,8.50
2022-08-17T09:26:40.005Z,9.80
2022-08-17T09:29:10.691Z,8.30
2022-08-17T09:31:49.426Z,8.20
2022-08-17T09:34:21.303Z,8.60
2022-08-17T09:37:03.089Z,8.70
2022-08-17T09:39:35.428Z,7.47
2022-08-17T09:42:08.695Z,8.40
2022-08-17T09:44:40.994Z,8.80
2022-08-17T09:47:14.701Z,7.63
2022-08-17T09:49:47.182Z,9.33
2022-08-17T09:52:19.676Z,8.70
2022-08-17T09:54:49.098Z,8.80
2022-08-17T09:57:32.455Z,8.43
2022-08-17T10:00:16.432Z,8.97
2022-08-17T10:03:01.871Z,8.43
2022-08-17T10:05:37.679Z,9.60
2022-08-17T10:08:10.622Z,8.60
2022-08-17T10:10:42.522Z,9.23
2022-08-17T10:13:25.034Z,8.67
2022-08-17T10:15:59.294Z,9.30
2022-08-17T10:18:34.564Z,8.80
2022-08-17T10:21:28.725Z,8.43
2022-08-17T10:24:19.242Z,7.20
2022-08-17T10:26:55.513Z,7.67
2022-08-17T10:29:29.086Z,9.70
2022-08-17T10:32:04.206Z,7.03
2022-08-17T10:34:44.383Z,7.30
2022-08-17T10:37:20.115Z,7.43
2022-08-17T10:39:52.887Z,7.33
2022-08-17T10:42:30.311Z,8.37
2022-08-17T10:45:05.086Z,8.67
2022-08-17T10:47:55.562Z,8.73
2022-08-17T10:50:47.637Z,8.37
2022-08-17T10:53:31.640Z,8.73
2022-08-17T10:56:16.413Z,7.23
2022-08-17T10:58:49.483Z,7.47
2022-08-17T11:01:19.160Z,7.57
2022-08-17T11:03:55.575Z,8.00
2022-08-17T11:06:34.205Z,8.23
2022-08-17T11:09:12.793Z,8.67
2022-08-17T11:11:53.195Z,8.03
2022-08-17T11:14:28.013Z,7.37
2022-08-17T11:17:11.518Z,8.43
2022-08-17T11:19:58.685Z,8.57
2022-08-17T11:22:58.207Z,7.70
2022-08-17T11:25:36.387Z,7.07
2022-08-17T11:28:10.196Z,9.17
2022-08-17T11:30:44.629Z,6.40
2022-08-17T11:33:33.180Z,7.20
2022-08-17T11:36:13.559Z,7.27
2022-08-17T11:38:47.807Z,6.50
2022-08-17T11:41:22.471Z,6.90
2022-08-17T11:44:10.723Z,5.87
2022-08-17T11:47:07.612Z,6.43
2022-08-17T11:50:03.089Z,7.53
2022-08-17T11:52:38.083Z,6.90
2022-08-17T11:55:34.104Z,6.50
2022-08-17T11:58:02.175Z,6.60
2022-08-17T12:00:58.304Z,6.20
2022-08-17T12:03:53.752Z,8.70
2022-08-17T12:06:51.260Z,6.30
2022-08-17T12:09:22.106Z,6.80
2022-08-17T12:11:56.247Z,6.33
2022-08-17T12:15:09.465Z,6.57
2022-08-17T12:17:41.327Z,7.33
2022-08-17T12:20:15.201Z,6.90
2022-08-17T12:22:53.605Z,6.37
2022-08-17T12:25:25.180Z,6.93
2022-08-17T12:28:05.324Z,6.30
2022-08-17T12:30:38.089Z,7.07
2022-08-17T12:33:25.679Z,5.67
2022-08-17T12:36:00.754Z,7.03
2022-08-17T12:38:32.939Z,5.70
2022-08-17T12:41:24.758Z,5.93
2022-08-17T12:44:02.492Z,6.63
2022-08-17T12:46:36.042Z,5.33
2022-08-17T12:49:26.601Z,6.70
2022-08-17T12:52:00.060Z,5.80
2022-08-17T12:54:35.992Z,6.30
2022-08-17T12:57:07.242Z,5.77
2022-08-17T12:59:36.352Z,6.17
2022-08-17T13:02:07.520Z,6.10
2022-08-17T13:04:37.671Z,8.33
2022-08-17T13:07:07.045Z,7.57
2022-08-17T13:09:40.737Z,6.13
2022-08-17T13:12:11.134Z,6.47
2022-08-17T13:14:40.300Z,7.10
2022-08-17T13:17:13.525Z,6.10
2022-08-17T13:19:50.088Z,5.80
2022-08-17T13:22:19.913Z,6.23
2022-08-17T13:24:54.579Z,6.00
2022-08-17T13:27:24.529Z,5.67
2022-08-17T13:29:55.820Z,5.70
2022-08-17T13:32:34.189Z,5.30
2022-08-17T13:35:14.085Z,6.50
2022-08-17T13:37:58.288Z,5.53
2022-08-17T13:40:29.225Z,6.37
2022-08-17T13:42:58.594Z,5.30
2022-08-17T13:45:38.979Z,5.27
2022-08-17T13:48:18.989Z,6.50
2022-08-17T13:50:49.893Z,7.07
2022-08-17T13:53:23.004Z,6.40
2022-08-17T13:55:53.796Z,6.97
2022-08-17T13:58:24.522Z,5.10
2022-08-17T14:00:53.873Z,5.43
2022-08-17T14:03:25.299Z,4.53
2022-08-17T14:05:55.186Z,4.87
2022-08-17T14:08:26.533Z,4.87
2022-08-17T14:10:59.432Z,5.47
2022-08-17T14:13:28.749Z,5.33
2022-08-17T14:15:57.811Z,5.20
2022-08-17T14:18:50.630Z,5.00
2022-08-17T14:21:17.729Z,5.70
2022-08-17T14:23:54.644Z,5.20
2022-08-17T14:26:24.240Z,5.67
2022-08-17T14:28:56.517Z,4.90
2022-08-17T14:31:27.647Z,5.23
2022-08-17T14:33:59.211Z,5.27
2022-08-17T14:36:28.355Z,4.60
2022-08-17T14:38:57.703Z,5.10
2022-08-17T14:41:27.693Z,5.60
2022-08-17T14:43:56.789Z,5.30
2022-08-17T14:46:26.673Z,5.60
2022-08-17T14:48:57.491Z,4.60
2022-08-17T14:51:31.156Z,6.37
2022-08-17T14:54:00.363Z,5.27
2022-08-17T14:56:35.338Z,7.00
2022-08-17T14:59:07.657Z,5.60
2022-08-17T15:01:37.032Z,5.47
2022-08-17T15:04:06.518Z,6.17
2022-08-17T15:06:37.397Z,5.70
2022-08-17T15:09:15.831Z,5.03
2022-08-17T15:11:47.323Z,5.60
2022-08-17T15:14:16.541Z,6.83
2022-08-17T15:16:45.658Z,6.83
2022-08-17T15:19:14.956Z,6.10
2022-08-17T15:21:47.173Z,5.37
2022-08-17T15:24:16.965Z,5.20
2022-08-17T15:26:49.375Z,5.40
2022-08-17T15:29:18.681Z,7.70
2022-08-17T15:31:48.240Z,7.33
2022-08-17T15:34:17.844Z,6.50
2022-08-17T15:36:49.460Z,5.70
2022-08-17T15:39:19.540Z,6.27
2022-08-17T15:41:58.664Z,5.80
2022-08-17T15:44:32.597Z,6.63
2022-08-17T15:47:04.563Z,6.30
2022-08-17T15:49:33.809Z,5.70
2022-08-17T15:52:16.269Z,7.20
2022-08-17T15:54:45.503Z,5.90
2022-08-17T15:57:15.934Z,6.33
2022-08-17T15:59:46.433Z,8.33
2022-08-17T16:03:44.412Z,7.53
2022-08-17T16:05:14.362Z,6.70
2022-08-17T16:07:48.150Z,6.50
2022-08-17T16:10:19.216Z,7.00
2022-08-17T16:12:49.858Z,8.10
2022-08-17T16:15:20.069Z,7.90
2022-08-17T16:17:49.174Z,5.90
2022-08-17T16:20:20.712Z,7.00
2022-08-17T16:22:52.134Z,6.57
2022-08-17T16:25:22.938Z,6.20
2022-08-17T16:28:09.618Z,5.67
2022-08-17T16:30:38.718Z,6.20
2022-08-17T16:33:08.314Z,5.93
2022-08-17T16:35:37.784Z,8.67
2022-08-17T16:38:08.476Z,5.80
2022-08-17T16:40:38.257Z,6.63
2022-08-17T16:43:10.761Z,6.30
2022-08-17T16:45:40.993Z,5.70
2022-08-17T16:48:10.689Z,6.57
2022-08-17T16:50:40.546Z,6.47
2022-08-17T16:53:16.458Z,7.87
2022-08-17T16:55:45.997Z,6.20
2022-08-17T16:58:15.637Z,7.13
2022-08-17T17:00:46.357Z,7.70
2022-08-17T17:03:19.955Z,6.10
2022-08-17T17:06:01.084Z,5.70
2022-08-17T17:08:40.706Z,5.80
2022-08-17T17:11:15.835Z,7.07
2022-08-17T17:13:48.274Z,5.40
2022-08-17T17:16:21.925Z,5.20
2022-08-17T17:19:01.957Z,5.30
2022-08-17T17:21:35.811Z,4.77
2022-08-17T17:24:08.876Z,4.60
2022-08-17T17:26:48.127Z,5.13
2022-08-17T17:29:26.223Z,5.33
2022-08-17T17:31:58.872Z,5.17
2022-08-17T17:34:31.146Z,5.20
2022-08-17T17:37:03.942Z,5.03
2022-08-17T17:39:43.874Z,4.90
2022-08-17T17:42:19.992Z,5.57
2022-08-17T17:44:51.935Z,5.80
2022-08-17T17:47:21.207Z,5.93
2022-08-17T17:49:50.600Z,5.60
2022-08-17T17:52:26.295Z,6.37
2022-08-17T17:55:03.389Z,5.93
2022-08-17T17:57:39.116Z,5.10
2022-08-17T18:00:10.420Z,5.83
2022-08-17T18:02:52.069Z,8.10
2022-08-17T18:05:34.755Z,5.50
2022-08-17T18:08:10.863Z,6.70
2022-08-17T18:10:49.050Z,5.80
2022-08-17T18:13:25.959Z,6.23
2022-08-17T18:15:56.212Z,5.30
2022-08-17T18:18:31.313Z,5.53
2022-08-17T18:21:06.760Z,5.70
2022-08-17T18:23:36.218Z,5.33
2022-08-17T18:26:07.144Z,6.30
2022-08-17T18:28:44.509Z,5.67
2022-08-17T18:31:23.030Z,6.00
2022-08-17T18:33:54.471Z,4.33
2022-08-17T18:36:29.083Z,5.77
2022-08-17T18:39:15.564Z,5.50
2022-08-17T18:41:48.993Z,5.03
2022-08-17T18:44:29.155Z,6.10
2022-08-17T18:47:09.475Z,6.70
2022-08-17T18:49:38.690Z,6.20
2022-08-17T18:52:18.110Z,6.80
2022-08-17T18:55:05.900Z,6.30
2022-08-17T18:57:39.204Z,6.40
2022-08-17T19:00:17.137Z,6.73
2022-08-17T19:02:55.442Z,6.30
2022-08-17T19:05:32.940Z,6.90
2022-08-17T19:08:25.202Z,6.00
2022-08-17T19:10:58.467Z,7.00
2022-08-17T19:13:35.442Z,7.20
2022-08-17T19:16:15.010Z,5.97
2022-08-17T19:18:49.230Z,7.33
2022-08-17T19:21:23.002Z,6.20
2022-08-17T19:23:59.165Z,6.90
2022-08-17T19:26:51.007Z,7.17
2022-08-17T19:29:26.577Z,6.67
2022-08-17T19:31:58.873Z,7.73
2022-08-17T19:34:33.906Z,11.60
2022-08-17T19:37:12.964Z,9.70
2022-08-17T19:40:01.603Z,7.10
2022-08-17T19:42:47.817Z,7.77
2022-08-17T19:45:40.155Z,7.20
2022-08-17T19:48:21.101Z,7.07
2022-08-17T19:50:56.670Z,9.77
2022-08-17T19:54:01.723Z,11.10
2022-08-17T19:56:31.958Z,11.70
2022-08-17T19:59:06.009Z,10.83
2022-08-17T20:01:50.947Z,10.93
2022-08-17T20:04:33.433Z,10.57
2022-08-17T20:07:09.552Z,10.37
2022-08-17T20:09:40.462Z,11.20
2022-08-17T20:12:12.474Z,12.53
2022-08-17T20:14:51.734Z,12.37
2022-08-17T20:17:28.756Z,13.47
2022-08-17T20:20:04.186Z,12.57
2022-08-17T20:22:52.305Z,11.80
2022-08-17T20:25:30.297Z,11.60
2022-08-17T20:28:16.011Z,10.90
2022-08-17T20:30:45.660Z,10.33
2022-08-17T20:33:27.714Z,9.57
2022-08-17T20:36:07.739Z,9.90
2022-08-17T20:38:42.762Z,12.03
2022-08-17T20:41:14.745Z,8.63
2022-08-17T20:43:51.503Z,11.37
2022-08-17T20:46:31.857Z,9.30
2022-08-17T20:49:19.342Z,13.00
2022-08-17T20:52:02.342Z,11.23
2022-08-17T20:54:50.299Z,10.27
2022-08-17T20:57:47.514Z,11.50
2022-08-17T21:00:42.528Z,10.13
2022-08-17T21:03:51.110Z,11.00
2022-08-17T21:06:25.108Z,10.23
2022-08-17T21:08:59.151Z,10.00
2022-08-17T21:12:04.147Z,10.17
2022-08-17T21:14:57.647Z,9.80
2022-08-17T21:17:48.559Z,10.07
2022-08-17T21:20:33.384Z,10.33
2022-08-17T21:23:35.123Z,14.60
2022-08-17T21:26:23.670Z,13.80
2022-08-17T21:29:17.184Z,9.60
2022-08-17T21:32:24.412Z,9.30
2022-08-17T21:35:23.866Z,9.37
2022-08-17T21:37:57.819Z,8.77
2022-08-17T21:40:31.308Z,12.27
2022-08-17T21:43:18.358Z,14.03
2022-08-17T21:46:01.196Z,8.70
2022-08-17T21:48:32.479Z,8.50
2022-08-17T21:51:09.122Z,8.27
2022-08-17T21:53:44.297Z,8.80
2022-08-17T21:56:22.397Z,10.60
2022-08-17T21:58:58.658Z,17.57
2022-08-17T22:01:30.228Z,15.60
2022-08-17T22:04:04.256Z,10.07
2022-08-17T22:06:39.187Z,8.83
2022-08-17T22:09:16.316Z,7.70
2022-08-17T22:12:06.599Z,7.27
2022-08-17T22:14:53.043Z,9.83
2022-08-17T22:17:27.526Z,9.33
2022-08-17T22:19:59.690Z,9.83
2022-08-17T22:22:32.705Z,16.50
2022-08-17T22:25:04.896Z,12.37
2022-08-17T22:27:51.971Z,10.87
2022-08-17T22:30:29.815Z,10.67
2022-08-17T22:33:00.397Z,15.10
2022-08-17T22:35:41.213Z,10.67
2022-08-17T22:38:34.950Z,9.30
2022-08-17T22:41:32.149Z,12.80
2022-08-17T22:44:14.283Z,14.20
2022-08-17T22:46:55.877Z,12.13
2022-08-17T22:49:31.426Z,8.60
2022-08-17T22:52:03.241Z,6.70
2022-08-17T22:54:50.624Z,8.33
2022-08-17T22:57:51.932Z,6.20
2022-08-17T23:00:35.521Z,5.93
2022-08-17T23:03:17.925Z,5.83
2022-08-17T23:05:48.842Z,6.50
2022-08-17T23:08:21.415Z,7.30
2022-08-17T23:10:50.760Z,7.00
2022-08-17T23:13:21.441Z,7.20
2022-08-17T23:15:52.980Z,7.50
2022-08-17T23:18:23.631Z,7.00
2022-08-17T23:20:52.879Z,8.20
2022-08-17T23:23:23.973Z,10.10
2022-08-17T23:25:54.544Z,10.70
2022-08-17T23:28:23.430Z,8.80
2022-08-17T23:30:53.893Z,8.87
2022-08-17T23:33:28.075Z,8.23
2022-08-17T23:35:58.166Z,7.27
2022-08-17T23:38:28.247Z,10.70
2022-08-17T23:41:00.126Z,11.33
2022-08-17T23:46:25.334Z,8.80
2022-08-17T23:48:54.946Z,7.97
2022-08-17T23:51:27.113Z,7.83
2022-08-17T23:54:02.101Z,8.50
2022-08-17T23:56:33.748Z,8.70
2022-08-17T23:59:02.971Z,8.87
